createdAt,value
2019-05-09T02:35:58.125Z,99.90
2019-05-09T03:52:08.954Z,99.90
2019-05-09T03:59:49.767Z,99.90
2019-05-09T04:10:19.598Z,99.90
2019-05-09T04:16:20.473Z,99.90
2019-05-09T04:49:03.492Z,99.90
2019-05-09T05:00:49.175Z,99.90
2019-05-09T05:07:11.083Z,99.90
2019-05-09T05:20:40.909Z,99.90
2019-05-09T05:38:21.640Z,99.90
2019-05-09T05:44:10.712Z,99.90
2019-05-09T05:50:14.598Z,99.90
2019-05-09T05:56:21.424Z,99.90
2019-05-09T06:01:32.591Z,99.90
2019-05-09T06:08:42.345Z,99.90
2019-05-09T06:14:04.028Z,99.90
2019-05-09T06:19:12.564Z,99.90
2019-05-09T06:24:48.190Z,99.90
2019-05-09T06:30:52.417Z,99.90
2019-05-09T06:35:52.722Z,99.90
2019-05-09T06:41:14.640Z,99.90
2019-05-09T06:46:55.049Z,99.90
2019-05-09T06:51:58.772Z,99.90
2019-05-09T06:57:02.590Z,99.90
2019-05-09T07:02:13.432Z,99.90
2019-05-09T07:07:18.949Z,99.90
2019-05-09T07:12:43.916Z,99.90
2019-05-09T07:17:43.328Z,99.90
2019-05-09T07:23:02.342Z,98.30
2019-05-09T07:28:00.476Z,99.30
2019-05-09T07:33:10.745Z,97.70
2019-05-09T07:38:09.873Z,95.80
2019-05-09T07:43:12.282Z,94.20
2019-05-09T07:48:41.733Z,93.20
2019-05-09T07:53:33.263Z,93.70
2019-05-09T07:58:44.471Z,92.90
2019-05-09T08:03:46.219Z,93.90
2019-05-09T08:08:50.799Z,94.80
2019-05-09T08:13:49.472Z,94.00
2019-05-09T08:18:44.849Z,91.40
2019-05-09T08:24:40.735Z,91.70
2019-05-09T08:29:34.510Z,92.70
2019-05-09T08:35:10.139Z,92.40
2019-05-09T08:40:39.823Z,92.50
2019-05-09T08:45:39.661Z,92.20
2019-05-09T08:50:42.681Z,91.20
2019-05-09T08:55:43.723Z,92.20
2019-05-09T09:00:50.695Z,94.00
2019-05-09T09:05:47.927Z,94.90
2019-05-09T09:10:44.957Z,94.20
2019-05-09T09:16:22.404Z,92.60
2019-05-09T09:21:14.188Z,93.50
2019-05-09T09:26:19.218Z,93.40
2019-05-09T09:31:13.597Z,93.20
2019-05-09T09:36:10.150Z,93.40
2019-05-09T09:41:00.921Z,93.20
2019-05-09T09:47:13.223Z,90.20
2019-05-09T09:52:14.921Z,90.30
2019-05-09T09:57:49.825Z,86.00
2019-05-09T10:03:49.022Z,87.40
2019-05-09T10:08:45.135Z,82.10
2019-05-09T10:15:30.148Z,84.30
2019-05-09T10:20:24.272Z,79.80
2019-05-09T10:31:30.791Z,79.40
2019-05-09T10:40:30.413Z,81.20
2019-05-09T10:47:09.870Z,74.10
2019-05-09T10:52:02.854Z,75.40
2019-05-09T10:56:52.946Z,78.80
2019-05-09T11:01:44.676Z,83.40
2019-05-09T11:07:02.526Z,86.60
2019-05-09T11:11:51.997Z,83.70
2019-05-09T11:22:00.785Z,85.70
2019-05-09T11:28:10.341Z,91.20
2019-05-09T11:33:01.182Z,90.80
2019-05-09T11:37:51.857Z,91.20
2019-05-09T11:42:44.631Z,92.70
2019-05-09T11:49:03.938Z,92.60
2019-05-09T11:53:50.984Z,91.20
2019-05-09T11:58:43.499Z,92.20
2019-05-09T12:06:03.810Z,91.70
2019-05-09T12:10:49.090Z,88.40
2019-05-09T12:16:05.415Z,80.10
2019-05-09T12:20:57.500Z,79.50
2019-05-09T12:25:50.184Z,81.80
2019-05-09T12:30:42.980Z,77.50
2019-05-09T12:35:44.515Z,72.80
2019-05-09T12:40:40.707Z,74.40
2019-05-09T12:45:33.349Z,80.10
2019-05-09T12:50:30.008Z,78.80
2019-05-09T12:55:20.745Z,80.80
2019-05-09T13:00:13.259Z,78.40
2019-05-09T13:05:05.303Z,82.70
2019-05-09T13:10:00.634Z,83.30
2019-05-09T13:14:53.217Z,86.80
2019-05-09T13:19:49.182Z,87.70
2019-05-09T13:24:49.210Z,87.40
2019-05-09T13:29:39.964Z,88.10
2019-05-09T13:42:21.061Z,90.00
2019-05-09T13:47:18.712Z,83.00
2019-05-09T13:54:30.071Z,79.30
2019-05-09T13:59:24.079Z,81.60
2019-05-09T14:04:41.014Z,80.70
2019-05-09T14:09:30.811Z,83.10
2019-05-09T14:14:22.634Z,85.40
2019-05-09T14:19:40.342Z,87.30
2019-05-09T14:24:37.703Z,85.50
2019-05-09T14:29:33.158Z,87.30
2019-05-09T14:34:24.050Z,88.90
2019-05-09T14:39:19.983Z,90.10
2019-05-09T14:44:11.781Z,91.20
2019-05-09T14:49:04.388Z,91.20
2019-05-09T14:54:00.742Z,91.00
2019-05-09T14:59:02.438Z,92.00
2019-05-09T15:03:54.484Z,85.80
2019-05-09T15:08:49.504Z,85.50
2019-05-09T15:13:41.306Z,83.40
2019-05-09T15:18:42.197Z,82.20
2019-05-09T15:23:33.642Z,84.90
2019-05-09T15:28:34.601Z,88.70
2019-05-09T15:34:43.676Z,89.80
2019-05-09T15:39:40.147Z,90.40
2019-05-09T15:45:14.029Z,91.30
2019-05-09T15:50:22.683Z,91.10
2019-05-09T15:55:12.612Z,90.10
2019-05-09T16:00:04.438Z,88.10
2019-05-09T16:04:59.205Z,88.20
2019-05-09T16:09:51.315Z,89.10
2019-05-09T16:14:44.635Z,89.00
2019-05-09T16:19:39.093Z,89.80
2019-05-09T16:24:30.848Z,90.50
2019-05-09T16:29:41.026Z,91.00
2019-05-09T16:34:31.088Z,91.20
2019-05-09T16:39:22.423Z,91.40
2019-05-09T16:44:20.124Z,91.70
2019-05-09T16:49:19.793Z,91.80
2019-05-09T16:54:23.662Z,92.10
2019-05-09T16:59:32.104Z,92.10
2019-05-09T17:04:40.050Z,92.00
2019-05-09T17:09:29.848Z,92.10
2019-05-09T17:14:23.842Z,92.30
2019-05-09T17:19:29.161Z,92.40
2019-05-09T17:44:19.466Z,94.10
2019-05-09T17:49:18.358Z,94.30
2019-05-09T17:54:18.005Z,94.30
2019-05-09T17:59:19.251Z,94.80
2019-05-09T18:04:13.703Z,94.90
2019-05-09T18:09:20.343Z,95.20
2019-05-09T18:14:32.703Z,95.70
2019-05-09T18:19:31.619Z,95.70
